createdAt,value
2022-09-14T00:01:08.304Z,76.11
2022-09-14T00:02:12.877Z,76.18
2022-09-14T00:03:17.413Z,76.31
2022-09-14T00:04:19.956Z,76.44
2022-09-14T00:05:21.666Z,76.30
2022-09-14T00:06:24.040Z,76.41
2022-09-14T00:07:27.277Z,76.46
2022-09-14T00:08:29.926Z,76.45
2022-09-14T00:09:31.584Z,76.39
2022-09-14T00:10:33.487Z,76.45
2022-09-14T00:11:36.803Z,76.37
2022-09-14T00:12:38.328Z,76.47
2022-09-14T00:13:42.228Z,76.40
2022-09-14T00:14:43.938Z,76.41
2022-09-14T00:15:45.693Z,76.43
2022-09-14T00:16:48.923Z,76.62
2022-09-14T00:17:50.790Z,76.73
2022-09-14T00:18:54.403Z,76.82
2022-09-14T00:19:56.051Z,76.89
2022-09-14T00:21:03.258Z,76.87
2022-09-14T00:22:08.427Z,76.73
2022-09-14T00:23:10.042Z,76.81
2022-09-14T00:24:11.648Z,76.72
2022-09-14T00:25:13.286Z,76.78
2022-09-14T00:26:18.515Z,76.70
2022-09-14T00:27:20.115Z,76.71
2022-09-14T00:28:21.940Z,76.70
2022-09-14T00:29:23.704Z,76.63
2022-09-14T00:30:25.545Z,76.79
2022-09-14T00:31:27.307Z,76.81
2022-09-14T00:32:29.575Z,76.80
2022-09-14T00:33:31.646Z,76.91
2022-09-14T00:34:34.428Z,76.82
2022-09-14T00:35:36.195Z,76.79
2022-09-14T00:36:41.426Z,76.74
2022-09-14T00:37:43.125Z,76.73
2022-09-14T00:38:46.419Z,76.88
2022-09-14T00:39:48.211Z,76.83
2022-09-14T00:40:58.181Z,76.85
2022-09-14T00:41:59.773Z,76.85
2022-09-14T00:43:01.784Z,76.96
2022-09-14T00:44:26.336Z,76.98
2022-09-14T00:45:28.145Z,76.97
2022-09-14T00:46:32.247Z,77.07
2022-09-14T00:47:34.352Z,77.01
2022-09-14T00:48:36.046Z,76.88
2022-09-14T00:49:40.237Z,76.91
2022-09-14T00:50:42.085Z,76.77
2022-09-14T00:51:52.637Z,76.74
2022-09-14T00:53:11.676Z,76.66
2022-09-14T00:54:13.637Z,76.62
2022-09-14T00:55:19.809Z,76.79
2022-09-14T00:56:21.560Z,76.60
2022-09-14T00:57:25.257Z,76.54
2022-09-14T00:58:27.110Z,76.67
2022-09-14T00:59:30.763Z,76.59
2022-09-14T01:00:32.346Z,76.64
2022-09-14T01:01:34.081Z,76.56
2022-09-14T01:02:37.419Z,76.65
2022-09-14T01:03:39.165Z,76.61
2022-09-14T01:04:42.288Z,76.73
2022-09-14T01:06:27.045Z,76.77
2022-09-14T01:07:55.973Z,76.74
2022-09-14T01:09:15.922Z,76.91
2022-09-14T01:10:48.867Z,76.86
2022-09-14T01:11:59.170Z,76.95
2022-09-14T01:13:19.648Z,76.97
2022-09-14T01:14:36.296Z,76.93
2022-09-14T01:15:43.846Z,76.98
2022-09-14T01:16:54.805Z,76.86
2022-09-14T01:18:23.180Z,76.88
2022-09-14T01:19:43.625Z,77.06
2022-09-14T01:21:07.189Z,77.06
2022-09-14T01:22:14.443Z,77.26
2022-09-14T01:23:32.482Z,77.29
2022-09-14T01:24:45.287Z,77.17
2022-09-14T01:26:14.476Z,77.23
2022-09-14T01:27:41.115Z,77.40
2022-09-14T01:29:07.466Z,77.46
2022-09-14T01:30:12.437Z,77.48
2022-09-14T01:31:43.014Z,77.55
2022-09-14T01:32:49.028Z,77.65
2022-09-14T01:34:04.904Z,77.62
2022-09-14T01:35:35.469Z,77.62
2022-09-14T01:36:40.951Z,77.62
2022-09-14T01:37:48.497Z,77.63
2022-09-14T01:38:52.776Z,77.81
2022-09-14T01:40:14.361Z,77.61
2022-09-14T01:41:23.498Z,77.75
2022-09-14T01:42:27.920Z,77.78
2022-09-14T01:43:46.205Z,77.66
2022-09-14T01:44:55.029Z,77.61
2022-09-14T01:46:04.109Z,77.69
2022-09-14T01:47:38.249Z,77.77
2022-09-14T01:48:48.397Z,77.85
2022-09-14T01:49:55.125Z,77.81
2022-09-14T01:50:59.770Z,77.89
2022-09-14T01:52:08.542Z,77.94
2022-09-14T01:53:10.260Z,78.03
2022-09-14T01:54:27.380Z,78.03
2022-09-14T01:55:36.410Z,78.11
2022-09-14T01:56:47.317Z,78.12
2022-09-14T01:58:05.347Z,78.31
2022-09-14T01:59:27.260Z,78.63
2022-09-14T02:00:30.451Z,78.71
2022-09-14T02:01:39.610Z,78.85
2022-09-14T02:02:52.073Z,78.87
2022-09-14T02:04:00.358Z,78.96
2022-09-14T02:05:30.795Z,78.91
2022-09-14T02:06:38.290Z,79.15
2022-09-14T02:07:40.466Z,79.03
2022-09-14T02:08:42.365Z,79.18
2022-09-14T02:09:45.485Z,79.36
2022-09-14T02:10:47.140Z,79.39
2022-09-14T02:11:49.166Z,79.30
2022-09-14T02:12:52.800Z,79.30
2022-09-14T02:13:54.833Z,79.28
2022-09-14T02:15:06.202Z,79.18
2022-09-14T02:16:23.829Z,79.34
2022-09-14T02:17:25.682Z,79.33
2022-09-14T02:18:27.769Z,79.24
2022-09-14T02:19:35.051Z,79.37
2022-09-14T02:20:51.070Z,79.50
2022-09-14T02:21:53.100Z,79.31
2022-09-14T02:22:55.221Z,79.61
2022-09-14T02:24:00.718Z,79.41
2022-09-14T02:25:02.955Z,79.49
2022-09-14T02:26:05.101Z,79.47
2022-09-14T02:27:07.334Z,79.48
2022-09-14T02:28:09.279Z,79.47
2022-09-14T02:29:10.947Z,79.77
2022-09-14T02:30:13.155Z,79.62
2022-09-14T02:31:15.381Z,79.65
2022-09-14T02:32:35.423Z,79.63
2022-09-14T02:34:04.292Z,79.55
2022-09-14T02:35:22.248Z,79.52
2022-09-14T02:36:51.688Z,79.55
2022-09-14T02:38:04.395Z,79.55
2022-09-14T02:39:37.756Z,79.57
2022-09-14T02:40:53.034Z,79.72
2022-09-14T02:42:05.149Z,79.83
2022-09-14T02:43:34.270Z,79.89
2022-09-14T02:44:58.981Z,79.82
2022-09-14T02:46:31.496Z,80.02
2022-09-14T02:47:56.689Z,80.20
2022-09-14T02:49:10.387Z,80.18
2022-09-14T02:50:30.579Z,80.32
2022-09-14T02:51:43.500Z,80.34
2022-09-14T02:52:56.920Z,80.32
2022-09-14T02:54:08.767Z,80.33
2022-09-14T02:55:14.406Z,80.19
2022-09-14T02:56:18.294Z,80.15
2022-09-14T02:57:19.900Z,80.16
2022-09-14T02:58:21.527Z,80.14
2022-09-14T02:59:23.219Z,80.19
2022-09-14T03:00:25.049Z,80.09
2022-09-14T03:01:27.545Z,80.06
2022-09-14T03:02:29.330Z,79.97
2022-09-14T03:03:35.667Z,80.02
2022-09-14T03:04:37.799Z,79.95
2022-09-14T03:05:40.071Z,80.02
2022-09-14T03:06:41.632Z,80.02
2022-09-14T03:07:43.230Z,80.02
2022-09-14T03:08:45.000Z,80.07
2022-09-14T03:09:49.455Z,80.08
2022-09-14T03:10:51.065Z,80.08
2022-09-14T03:11:52.717Z,80.13
2022-09-14T03:12:54.387Z,80.40
2022-09-14T03:13:56.145Z,80.41
2022-09-14T03:14:57.819Z,80.23
2022-09-14T03:16:05.074Z,80.42
2022-09-14T03:17:06.842Z,80.49
2022-09-14T03:18:13.637Z,80.40
2022-09-14T03:19:17.110Z,80.38
2022-09-14T03:20:22.248Z,80.27
2022-09-14T03:21:23.953Z,80.23
2022-09-14T03:22:25.605Z,80.17
2022-09-14T03:23:30.426Z,80.11
2022-09-14T03:24:32.090Z,80.13
2022-09-14T03:25:38.347Z,80.08
2022-09-14T03:26:40.438Z,80.11
2022-09-14T03:27:42.165Z,80.04
2022-09-14T03:28:44.681Z,80.02
2022-09-14T03:29:46.402Z,80.07
2022-09-14T03:30:48.309Z,80.02
2022-09-14T03:31:49.947Z,79.95
2022-09-14T03:32:52.344Z,79.90
2022-09-14T03:34:00.068Z,79.88
2022-09-14T03:35:01.783Z,79.97
2022-09-14T03:36:12.094Z,79.99
2022-09-14T03:37:14.665Z,80.06
2022-09-14T03:38:16.442Z,79.98
2022-09-14T03:39:18.084Z,79.90
2022-09-14T03:40:22.105Z,79.92
2022-09-14T03:41:27.226Z,79.91
2022-09-14T03:42:29.245Z,79.99
2022-09-14T03:43:31.011Z,79.98
2022-09-14T03:44:32.609Z,80.04
2022-09-14T03:45:36.414Z,80.01
2022-09-14T03:46:38.648Z,80.12
2022-09-14T03:47:40.791Z,80.21
2022-09-14T03:48:42.920Z,80.41
2022-09-14T03:49:44.591Z,80.50
2022-09-14T03:50:46.124Z,80.42
2022-09-14T03:51:50.329Z,80.44
2022-09-14T03:52:52.363Z,80.50
2022-09-14T03:53:53.955Z,80.54
2022-09-14T03:54:55.621Z,80.56
2022-09-14T03:55:59.243Z,80.69
2022-09-14T03:57:00.863Z,80.65
2022-09-14T03:58:02.785Z,80.78
2022-09-14T03:59:04.430Z,80.88
2022-09-14T04:00:07.275Z,80.98
2022-09-14T04:01:14.410Z,81.20
2022-09-14T04:02:16.371Z,81.22
2022-09-14T04:03:18.741Z,81.30
2022-09-14T04:04:20.549Z,81.22
2022-09-14T04:05:22.465Z,81.20
2022-09-14T04:06:25.561Z,81.12
2022-09-14T04:07:27.525Z,81.26
2022-09-14T04:08:29.275Z,81.14
2022-09-14T04:09:34.051Z,81.25
2022-09-14T04:10:35.621Z,81.21
2022-09-14T04:11:37.182Z,81.28
2022-09-14T04:12:39.572Z,81.21
2022-09-14T04:13:42.513Z,81.17
2022-09-14T04:14:44.062Z,81.21
2022-09-14T04:15:56.049Z,81.12
2022-09-14T04:16:57.879Z,81.16
2022-09-14T04:18:02.386Z,81.14
2022-09-14T04:19:04.634Z,81.07
2022-09-14T04:20:07.217Z,81.10
2022-09-14T04:21:18.211Z,81.10
2022-09-14T04:22:19.941Z,81.07
2022-09-14T04:23:22.390Z,81.14
2022-09-14T04:24:27.947Z,81.02
2022-09-14T04:25:31.818Z,80.99
2022-09-14T04:26:34.261Z,81.01
2022-09-14T04:27:35.870Z,80.96
2022-09-14T04:28:40.640Z,81.00
2022-09-14T04:29:42.395Z,80.95
2022-09-14T04:30:44.210Z,80.93
2022-09-14T04:31:46.236Z,80.91
2022-09-14T04:32:48.060Z,80.90
2022-09-14T04:33:50.870Z,80.90
2022-09-14T04:34:52.622Z,80.78
2022-09-14T04:36:03.185Z,80.84
2022-09-14T04:37:04.858Z,80.81
2022-09-14T04:38:06.875Z,80.82
2022-09-14T04:39:11.442Z,80.79
2022-09-14T04:40:14.632Z,80.89
2022-09-14T04:41:19.906Z,80.87
2022-09-14T04:42:21.511Z,80.89
2022-09-14T04:43:24.455Z,80.81
2022-09-14T04:44:27.278Z,80.93
2022-09-14T04:45:30.153Z,80.98
2022-09-14T04:46:43.464Z,80.95
2022-09-14T04:47:47.876Z,81.03
2022-09-14T04:48:50.515Z,81.12
2022-09-14T04:49:52.203Z,80.88
2022-09-14T04:50:54.172Z,81.00
2022-09-14T04:51:55.766Z,80.96
2022-09-14T04:52:57.463Z,80.82
2022-09-14T04:54:00.853Z,80.96
2022-09-14T04:55:02.631Z,81.01
2022-09-14T04:56:07.760Z,80.91
2022-09-14T04:57:09.441Z,80.88
2022-09-14T04:58:11.137Z,80.93
2022-09-14T04:59:15.066Z,80.97
2022-09-14T05:00:16.790Z,80.93
2022-09-14T05:01:21.414Z,81.00
2022-09-14T05:02:23.292Z,81.02
2022-09-14T05:03:25.142Z,80.99
2022-09-14T05:04:26.883Z,80.98
2022-09-14T05:05:28.517Z,80.96
2022-09-14T05:06:33.232Z,80.92
2022-09-14T05:07:34.795Z,80.87
2022-09-14T05:08:38.191Z,80.94
2022-09-14T05:09:39.903Z,80.90
2022-09-14T05:10:41.568Z,80.94
2022-09-14T05:11:44.196Z,80.94
2022-09-14T05:12:46.275Z,80.98
2022-09-14T05:13:50.157Z,80.85
2022-09-14T05:14:52.604Z,80.85
2022-09-14T05:15:55.350Z,81.09
2022-09-14T05:17:00.691Z,81.00
2022-09-14T05:18:05.184Z,81.03
2022-09-14T05:19:10.511Z,80.96
2022-09-14T05:20:12.291Z,80.99
2022-09-14T05:21:16.790Z,80.97
2022-09-14T05:22:22.257Z,80.87
2022-09-14T05:23:24.104Z,80.98
2022-09-14T05:24:26.035Z,81.04
2022-09-14T05:25:28.001Z,80.94
2022-09-14T05:26:31.603Z,81.05
2022-09-14T05:27:33.351Z,81.12
2022-09-14T05:28:35.753Z,81.24
2022-09-14T05:29:39.914Z,81.32
2022-09-14T05:30:41.570Z,81.29
2022-09-14T05:31:44.136Z,81.47
2022-09-14T05:32:46.566Z,81.52
2022-09-14T05:33:49.040Z,81.58
2022-09-14T05:34:50.706Z,81.49
2022-09-14T05:35:52.363Z,81.48
2022-09-14T05:36:53.979Z,81.46
2022-09-14T05:37:56.221Z,81.59
2022-09-14T05:38:57.914Z,81.61
2022-09-14T05:39:59.630Z,81.62
2022-09-14T05:41:01.945Z,81.69
2022-09-14T05:42:03.691Z,81.67
2022-09-14T05:43:05.566Z,81.67
2022-09-14T05:44:07.279Z,81.66
2022-09-14T05:45:09.381Z,81.71
2022-09-14T05:46:19.582Z,82.09
2022-09-14T05:47:21.183Z,82.03
2022-09-14T05:48:22.787Z,82.03
2022-09-14T05:49:24.897Z,82.24
2022-09-14T05:50:26.464Z,82.18
2022-09-14T05:51:28.995Z,82.36
2022-09-14T05:52:30.740Z,82.35
2022-09-14T05:53:33.284Z,82.43
2022-09-14T05:54:34.896Z,82.37
2022-09-14T05:55:36.555Z,82.44
2022-09-14T05:56:38.203Z,82.37
2022-09-14T05:57:40.116Z,82.49
2022-09-14T05:58:42.845Z,82.46
2022-09-14T05:59:46.863Z,82.43
2022-09-14T06:00:51.479Z,82.45
2022-09-14T06:01:59.092Z,82.52
2022-09-14T06:03:00.699Z,82.58
2022-09-14T06:04:03.201Z,82.57
2022-09-14T06:05:05.397Z,82.86
2022-09-14T06:06:09.044Z,82.78
2022-09-14T06:07:18.533Z,82.79
2022-09-14T06:08:23.218Z,83.16
2022-09-14T06:09:24.817Z,83.02
2022-09-14T06:10:26.429Z,83.00
2022-09-14T06:11:30.560Z,83.09
2022-09-14T06:12:32.240Z,82.99
2022-09-14T06:13:34.445Z,83.06
2022-09-14T06:14:36.163Z,83.09
2022-09-14T06:15:40.429Z,82.96
2022-09-14T06:16:42.101Z,83.05
2022-09-14T06:17:43.666Z,83.03
2022-09-14T06:18:46.418Z,82.91
2022-09-14T06:19:48.125Z,82.87
2022-09-14T06:20:51.620Z,82.93
2022-09-14T06:21:55.732Z,82.86
2022-09-14T06:22:57.370Z,82.87
2022-09-14T06:23:59.528Z,82.80
2022-09-14T06:25:01.340Z,82.75
2022-09-14T06:26:04.767Z,82.71
2022-09-14T06:27:08.546Z,82.66
2022-09-14T06:28:10.174Z,82.64
2022-09-14T06:29:11.779Z,82.54
2022-09-14T06:30:13.467Z,82.44
2022-09-14T06:31:21.847Z,82.49
2022-09-14T06:32:26.790Z,82.31
2022-09-14T06:33:28.831Z,82.24
2022-09-14T06:34:30.398Z,82.09
2022-09-14T06:35:32.015Z,82.06
2022-09-14T06:36:35.651Z,81.94
2022-09-14T06:37:37.312Z,81.89
2022-09-14T06:38:41.481Z,82.04
2022-09-14T06:39:43.655Z,81.91
2022-09-14T06:40:59.058Z,81.81
2022-09-14T06:42:03.494Z,81.82
2022-09-14T06:43:05.231Z,81.76
2022-09-14T06:44:06.915Z,81.65
2022-09-14T06:45:09.025Z,81.62
2022-09-14T06:46:21.171Z,81.52
2022-09-14T06:47:23.391Z,81.46
2022-09-14T06:48:26.790Z,81.70
2022-09-14T06:49:31.593Z,81.80
2022-09-14T06:50:33.236Z,81.79
2022-09-14T06:51:37.874Z,81.82
2022-09-14T06:52:39.725Z,81.87
2022-09-14T06:53:41.853Z,81.94
2022-09-14T06:54:43.509Z,82.50
2022-09-14T06:55:45.367Z,82.40
2022-09-14T06:56:47.136Z,82.24
2022-09-14T06:57:51.160Z,82.31
2022-09-14T06:58:53.302Z,82.30
2022-09-14T06:59:54.915Z,82.42
2022-09-14T07:01:01.400Z,82.67
2022-09-14T07:02:03.035Z,82.65
2022-09-14T07:03:04.800Z,82.51
2022-09-14T07:04:07.470Z,82.25
2022-09-14T07:05:09.526Z,82.16
2022-09-14T07:06:13.845Z,82.10
2022-09-14T07:07:16.026Z,82.13
2022-09-14T07:08:17.655Z,82.12
2022-09-14T07:09:19.807Z,82.03
2022-09-14T07:10:21.679Z,82.29
2022-09-14T07:11:26.069Z,82.18
2022-09-14T07:12:27.916Z,82.15
2022-09-14T07:13:31.055Z,82.10
2022-09-14T07:14:36.269Z,82.16
2022-09-14T07:15:38.014Z,82.11
2022-09-14T07:16:40.597Z,82.07
2022-09-14T07:17:44.911Z,81.96
2022-09-14T07:18:47.022Z,81.90
2022-09-14T07:19:48.695Z,81.94
2022-09-14T07:20:50.360Z,81.91
2022-09-14T07:21:54.151Z,81.87
2022-09-14T07:22:55.927Z,81.81
2022-09-14T07:23:58.061Z,81.83
2022-09-14T07:25:00.151Z,81.85
2022-09-14T07:26:05.211Z,81.80
2022-09-14T07:27:06.990Z,81.86
2022-09-14T07:28:08.752Z,81.72
2022-09-14T07:29:18.599Z,81.52
2022-09-14T07:30:20.703Z,81.66
2022-09-14T07:31:28.257Z,81.87
2022-09-14T07:32:31.027Z,81.81
2022-09-14T07:33:33.184Z,81.89
2022-09-14T07:34:34.911Z,82.02
2022-09-14T07:35:36.512Z,82.47
2022-09-14T07:36:39.021Z,82.23
2022-09-14T07:37:40.730Z,82.01
2022-09-14T07:38:52.026Z,81.81
2022-09-14T07:39:54.124Z,81.62
2022-09-14T07:40:59.388Z,81.39
2022-09-14T07:42:01.168Z,81.31
2022-09-14T07:43:02.895Z,81.27
2022-09-14T07:44:07.355Z,81.35
2022-09-14T07:45:10.657Z,81.32
2022-09-14T07:46:12.329Z,81.68
2022-09-14T07:47:13.965Z,81.84
2022-09-14T07:48:15.865Z,81.94
2022-09-14T07:49:17.896Z,81.79
2022-09-14T07:50:19.430Z,81.76
2022-09-14T07:51:21.656Z,81.84
2022-09-14T07:52:23.428Z,81.77
2022-09-14T07:53:25.077Z,82.01
2022-09-14T07:54:26.680Z,82.03
2022-09-14T07:55:28.274Z,82.00
2022-09-14T07:56:29.869Z,82.15
2022-09-14T07:57:52.539Z,82.06
2022-09-14T07:59:07.093Z,82.16
2022-09-14T08:00:18.556Z,82.12
2022-09-14T08:01:20.382Z,81.78
2022-09-14T08:02:25.014Z,80.93
2022-09-14T08:03:28.424Z,80.22
2022-09-14T08:04:30.084Z,79.80
2022-09-14T08:05:31.902Z,79.48
2022-09-14T08:06:34.250Z,78.57
2022-09-14T08:07:35.811Z,78.04
2022-09-14T08:08:39.936Z,77.72
2022-09-14T08:09:41.590Z,77.65
2022-09-14T08:10:46.022Z,77.56
2022-09-14T08:11:47.779Z,77.69
2022-09-14T08:12:51.394Z,77.77
2022-09-14T08:13:59.003Z,77.14
2022-09-14T08:15:01.737Z,77.08
2022-09-14T08:16:04.458Z,77.14
2022-09-14T08:17:06.129Z,76.58
2022-09-14T08:18:07.932Z,76.62
2022-09-14T08:19:16.557Z,76.33
2022-09-14T08:20:18.202Z,76.23
2022-09-14T08:21:20.029Z,76.22
2022-09-14T08:22:21.892Z,75.52
2022-09-14T08:23:24.814Z,75.53
2022-09-14T08:24:26.674Z,75.32
2022-09-14T08:25:28.317Z,74.97
2022-09-14T08:26:30.935Z,74.77
2022-09-14T08:27:32.856Z,74.83
2022-09-14T08:28:35.833Z,74.95
2022-09-14T08:29:39.185Z,75.13
2022-09-14T08:30:41.111Z,74.86
2022-09-14T08:31:44.927Z,74.86
2022-09-14T08:32:46.673Z,74.97
2022-09-14T08:33:54.867Z,75.24
2022-09-14T08:34:57.195Z,74.47
2022-09-14T08:35:59.001Z,73.99
2022-09-14T08:37:01.170Z,73.95
2022-09-14T08:38:03.201Z,73.34
2022-09-14T08:39:08.839Z,73.17
2022-09-14T08:40:12.892Z,73.01
2022-09-14T08:41:29.760Z,72.82
2022-09-14T08:42:31.995Z,72.26
2022-09-14T08:43:33.726Z,72.33
2022-09-14T08:44:46.815Z,71.59
2022-09-14T08:45:50.179Z,71.78
2022-09-14T08:47:29.004Z,71.22
2022-09-14T08:48:37.364Z,70.75
2022-09-14T08:49:54.370Z,70.79
2022-09-14T08:50:56.375Z,69.90
2022-09-14T08:52:00.271Z,69.90
2022-09-14T08:53:01.945Z,69.87
2022-09-14T08:54:03.590Z,69.98
2022-09-14T08:55:23.512Z,68.92
2022-09-14T08:56:31.720Z,69.25
2022-09-14T08:57:45.286Z,69.05
2022-09-14T08:58:59.808Z,67.83
2022-09-14T09:00:12.974Z,67.81
2022-09-14T09:01:46.718Z,66.60
2022-09-14T09:03:26.220Z,65.70
2022-09-14T09:04:33.745Z,65.88
2022-09-14T09:05:56.702Z,65.89
2022-09-14T09:07:19.599Z,66.22
2022-09-14T09:08:30.869Z,66.45
2022-09-14T09:09:59.164Z,67.43
2022-09-14T09:11:05.064Z,68.11
2022-09-14T09:12:12.361Z,67.87
2022-09-14T09:13:23.489Z,67.47
2022-09-14T09:14:31.318Z,67.47
2022-09-14T09:15:44.560Z,67.57
2022-09-14T09:16:50.926Z,68.05
2022-09-14T09:18:04.616Z,67.37
2022-09-14T09:19:13.663Z,67.65
2022-09-14T09:20:23.017Z,67.86
2022-09-14T09:21:44.997Z,67.40
2022-09-14T09:23:12.309Z,66.93
2022-09-14T09:24:16.440Z,67.46
2022-09-14T09:25:35.162Z,67.51
2022-09-14T09:26:38.396Z,67.14
2022-09-14T09:27:40.087Z,66.83
2022-09-14T09:28:51.610Z,66.83
2022-09-14T09:29:53.446Z,66.32
2022-09-14T09:30:59.218Z,66.19
2022-09-14T09:32:03.236Z,65.88
2022-09-14T09:33:05.230Z,65.45
2022-09-14T09:34:07.260Z,65.45
2022-09-14T09:35:15.179Z,64.98
2022-09-14T09:36:17.890Z,65.28
2022-09-14T09:37:23.103Z,64.46
2022-09-14T09:38:28.995Z,64.05
2022-09-14T09:39:38.011Z,63.74
2022-09-14T09:40:44.471Z,63.50
2022-09-14T09:41:50.544Z,63.46
2022-09-14T09:43:05.836Z,62.49
2022-09-14T09:44:09.870Z,63.36
2022-09-14T09:45:11.660Z,63.24
2022-09-14T09:46:14.150Z,62.86
2022-09-14T09:47:25.447Z,62.61
2022-09-14T09:48:41.236Z,62.83
2022-09-14T09:49:44.214Z,62.92
2022-09-14T09:51:03.555Z,62.92
2022-09-14T09:52:09.626Z,62.92
2022-09-14T09:53:16.025Z,62.69
2022-09-14T09:55:06.192Z,62.90
2022-09-14T09:56:18.796Z,62.42
2022-09-14T09:57:30.076Z,62.16
2022-09-14T09:58:39.131Z,62.04
2022-09-14T09:59:46.736Z,62.44
2022-09-14T10:00:59.601Z,62.49
2022-09-14T10:02:21.533Z,62.82
2022-09-14T10:03:43.335Z,61.85
2022-09-14T10:04:58.906Z,60.96
2022-09-14T10:06:04.771Z,61.11
2022-09-14T10:07:21.748Z,60.91
2022-09-14T10:08:26.693Z,61.84
2022-09-14T10:09:29.971Z,62.83
2022-09-14T10:10:36.101Z,63.00
2022-09-14T10:11:39.585Z,63.24
2022-09-14T10:12:51.934Z,63.11
2022-09-14T10:13:55.323Z,63.13
2022-09-14T10:15:22.283Z,63.61
2022-09-14T10:41:36.350Z,62.71
2022-09-14T10:42:50.097Z,62.72
2022-09-14T10:43:59.253Z,62.58
2022-09-14T10:45:35.530Z,62.40
2022-09-14T10:46:54.706Z,61.98
2022-09-14T10:48:26.264Z,61.67
2022-09-14T10:49:33.821Z,61.68
2022-09-14T10:50:55.104Z,61.74
2022-09-14T10:52:27.082Z,61.71
2022-09-14T10:53:36.700Z,62.10
2022-09-14T10:55:03.401Z,62.12
2022-09-14T10:56:16.178Z,62.22
2022-09-14T10:57:45.921Z,62.60
2022-09-14T10:58:55.130Z,62.77
2022-09-14T11:00:19.823Z,62.88
2022-09-14T11:01:53.574Z,62.91
2022-09-14T11:03:29.251Z,63.08
2022-09-14T11:04:54.639Z,63.11
2022-09-14T11:06:07.968Z,63.37
2022-09-14T11:07:53.215Z,63.29
2022-09-14T11:09:01.929Z,63.60
2022-09-14T11:10:11.058Z,63.93
2022-09-14T11:11:30.532Z,63.98
2022-09-14T11:13:11.615Z,63.59
2022-09-14T11:14:29.813Z,63.81
2022-09-14T11:15:46.900Z,63.96
2022-09-14T11:17:28.035Z,64.05
2022-09-14T11:18:53.656Z,64.15
2022-09-14T11:20:43.690Z,64.01
2022-09-14T11:21:49.594Z,64.46
2022-09-14T11:22:55.654Z,63.90
2022-09-14T11:24:02.645Z,63.66
2022-09-14T11:25:18.160Z,63.83
2022-09-14T11:26:31.779Z,64.06
2022-09-14T11:27:55.177Z,63.87
2022-09-14T11:29:13.004Z,63.82
2022-09-14T11:30:59.037Z,63.91
2022-09-14T11:32:27.506Z,64.00
2022-09-14T11:33:44.367Z,64.37
2022-09-14T11:35:05.754Z,63.78
2022-09-14T11:36:23.085Z,63.63
2022-09-14T11:37:43.348Z,63.44
2022-09-14T11:39:06.542Z,63.77
2022-09-14T11:40:35.406Z,64.03
2022-09-14T11:41:46.138Z,63.41
2022-09-14T11:43:14.048Z,63.07
2022-09-14T11:44:30.477Z,63.08
2022-09-14T11:45:41.598Z,62.72
2022-09-14T11:46:49.778Z,61.32
2022-09-14T11:48:41.902Z,60.87
2022-09-14T11:49:58.910Z,61.15
2022-09-14T11:51:27.944Z,60.64
2022-09-14T11:52:33.551Z,59.80
2022-09-14T11:53:36.975Z,58.67
2022-09-14T11:54:46.076Z,57.84
2022-09-14T11:55:51.251Z,56.80
2022-09-14T11:57:05.056Z,55.41
2022-09-14T11:58:20.365Z,55.78
2022-09-14T11:59:41.789Z,56.63
2022-09-14T12:01:02.441Z,56.73
2022-09-14T12:02:24.161Z,57.01
2022-09-14T12:04:00.127Z,56.97
2022-09-14T12:05:10.326Z,56.85
2022-09-14T12:06:29.449Z,56.23
2022-09-14T12:07:47.562Z,56.52
2022-09-14T12:08:50.963Z,56.05
2022-09-14T12:09:54.350Z,55.14
2022-09-14T12:11:09.415Z,54.44
2022-09-14T12:12:30.912Z,54.63
2022-09-14T12:13:34.737Z,54.52
2022-09-14T12:14:40.828Z,55.47
2022-09-14T12:15:45.276Z,55.18
2022-09-14T12:17:38.881Z,54.68
2022-09-14T12:18:40.451Z,54.98
2022-09-14T12:19:49.685Z,53.91
2022-09-14T12:21:27.758Z,54.15
2022-09-14T12:22:38.148Z,54.56
2022-09-14T12:23:44.009Z,54.69
2022-09-14T12:25:12.972Z,54.44
2022-09-14T12:26:16.140Z,54.72
2022-09-14T12:27:23.346Z,54.35
2022-09-14T12:28:35.171Z,54.23
2022-09-14T12:29:38.326Z,54.55
2022-09-14T12:31:04.564Z,54.42
2022-09-14T12:32:26.853Z,54.27
2022-09-14T12:33:32.922Z,53.54
2022-09-14T12:34:36.196Z,52.64
2022-09-14T12:35:39.535Z,52.31
2022-09-14T12:36:42.682Z,52.70
2022-09-14T12:37:46.009Z,52.78
2022-09-14T12:38:55.501Z,52.00
2022-09-14T12:40:23.483Z,51.83
2022-09-14T12:41:26.789Z,50.91
2022-09-14T12:42:32.423Z,50.78
2022-09-14T12:43:35.913Z,50.91
2022-09-14T12:44:43.073Z,50.75
2022-09-14T12:46:01.525Z,50.18
2022-09-14T12:47:30.049Z,49.99
2022-09-14T12:48:48.850Z,50.02
2022-09-14T12:49:54.716Z,50.48
2022-09-14T12:50:57.977Z,50.57
2022-09-14T12:52:11.570Z,50.56
2022-09-14T12:53:24.995Z,49.78
2022-09-14T12:54:31.067Z,48.98
2022-09-14T12:56:01.235Z,49.50
2022-09-14T12:57:26.146Z,50.47
2022-09-14T12:58:44.321Z,50.26
2022-09-14T13:00:02.398Z,49.78
2022-09-14T13:01:29.552Z,50.09
2022-09-14T13:02:47.698Z,50.76
2022-09-14T13:03:54.187Z,50.38
2022-09-14T13:04:59.422Z,50.50
2022-09-14T13:06:03.343Z,51.43
2022-09-14T13:07:16.090Z,51.77
2022-09-14T13:08:23.880Z,51.76
2022-09-14T13:09:30.768Z,50.67
2022-09-14T13:10:44.396Z,50.80
2022-09-14T13:11:54.369Z,51.45
2022-09-14T13:13:00.514Z,51.89
2022-09-14T13:14:04.120Z,52.22
2022-09-14T13:15:39.649Z,52.68
2022-09-14T13:16:49.794Z,53.02
2022-09-14T13:18:19.296Z,53.46
2022-09-14T13:19:25.819Z,53.73
2022-09-14T13:20:34.686Z,54.13
2022-09-14T13:21:47.026Z,54.60
2022-09-14T13:22:50.231Z,54.63
2022-09-14T13:23:53.397Z,54.68
2022-09-14T13:24:56.714Z,54.93
2022-09-14T13:26:00.640Z,55.28
2022-09-14T13:27:06.216Z,55.70
2022-09-14T13:28:15.849Z,55.94
2022-09-14T13:29:19.673Z,55.72
2022-09-14T13:30:26.152Z,55.69
2022-09-14T13:31:39.004Z,55.93
2022-09-14T13:32:45.752Z,55.86
2022-09-14T13:33:51.673Z,55.72
2022-09-14T13:34:55.383Z,55.73
2022-09-14T13:36:01.565Z,55.84
2022-09-14T13:37:05.786Z,56.05
2022-09-14T13:38:24.608Z,56.06
2022-09-14T13:39:40.394Z,56.01
2022-09-14T13:40:44.450Z,56.25
2022-09-14T13:41:48.361Z,56.86
2022-09-14T13:42:52.406Z,56.68
2022-09-14T13:43:58.816Z,56.66
2022-09-14T13:45:02.279Z,56.62
2022-09-14T13:46:11.669Z,55.75
2022-09-14T13:47:21.449Z,55.97
2022-09-14T13:48:25.128Z,56.36
2022-09-14T13:49:28.545Z,56.37
2022-09-14T13:50:31.745Z,56.67
2022-09-14T13:51:35.691Z,56.36
2022-09-14T13:53:01.011Z,55.97
2022-09-14T13:54:29.654Z,55.81
2022-09-14T13:55:35.563Z,55.77
2022-09-14T13:56:39.324Z,55.22
2022-09-14T13:58:06.922Z,55.12
2022-09-14T13:59:12.722Z,55.61
2022-09-14T14:00:20.443Z,56.02
2022-09-14T14:01:28.405Z,55.56
2022-09-14T14:02:34.279Z,55.74
2022-09-14T14:03:41.870Z,56.15
2022-09-14T14:04:49.072Z,56.33
2022-09-14T14:05:52.948Z,56.67
2022-09-14T14:07:04.432Z,56.88
2022-09-14T14:08:27.689Z,56.87
2022-09-14T14:09:59.980Z,56.84
2022-09-14T14:11:08.574Z,57.16
2022-09-14T14:12:27.344Z,57.27
2022-09-14T14:13:36.149Z,56.89
2022-09-14T14:14:39.613Z,56.91
2022-09-14T14:15:43.673Z,56.80
2022-09-14T14:17:25.623Z,57.27
2022-09-14T14:18:37.980Z,57.23
2022-09-14T14:19:41.249Z,57.49
2022-09-14T14:20:44.484Z,57.76
2022-09-14T14:21:49.307Z,57.91
2022-09-14T14:23:13.535Z,58.05
2022-09-14T14:24:24.856Z,58.33
2022-09-14T14:25:33.630Z,58.50
2022-09-14T14:26:37.086Z,58.14
2022-09-14T14:27:48.138Z,58.62
2022-09-14T14:28:51.116Z,58.94
2022-09-14T14:29:54.879Z,59.22
2022-09-14T14:31:04.029Z,59.54
2022-09-14T14:32:11.070Z,59.53
2022-09-14T14:33:18.982Z,59.56
2022-09-14T14:34:25.965Z,59.87
2022-09-14T14:35:31.505Z,60.08
2022-09-14T14:36:35.279Z,59.99
2022-09-14T14:37:38.366Z,59.68
2022-09-14T14:38:48.243Z,59.89
2022-09-14T14:39:51.551Z,59.96
2022-09-14T14:40:55.862Z,60.06
2022-09-14T14:42:09.977Z,59.83
2022-09-14T14:43:22.141Z,59.69
2022-09-14T14:44:28.448Z,59.72
2022-09-14T14:45:39.567Z,59.50
2022-09-14T14:46:42.789Z,59.77
2022-09-14T14:47:47.476Z,59.96
2022-09-14T14:48:50.754Z,59.99
2022-09-14T14:49:54.272Z,59.87
2022-09-14T14:50:57.647Z,60.05
2022-09-14T14:52:02.976Z,60.16
2022-09-14T14:53:06.572Z,60.03
2022-09-14T14:54:13.274Z,60.31
2022-09-14T14:55:16.353Z,60.52
2022-09-14T14:56:19.921Z,60.24
2022-09-14T14:57:28.322Z,60.14
2022-09-14T14:58:36.432Z,60.04
2022-09-14T15:00:10.111Z,59.77
2022-09-14T15:01:23.712Z,60.20
2022-09-14T15:02:32.484Z,60.34